Time;durP1;ratioP1;P1;durP2;ratioP2;P2;SDS_P1;SDS_P2;PMS_P1;PMS_P2;Temp;Humidity;BMP_temperature;BMP_pressure;BME280_temperature;BME280_humidity;BME280_pressure;Samples;Min_cycle;Max_cycle;Signal;HPM_P1;HPM_P2
2022/04/05 12:30:35;;;;;;;2.22;1.45;;;;;;;;;;7370613;19;132752;-13
2022/04/05 12:33:07;;;;;;;2.17;1.88;;;;;;;;;;7364985;19;153764;-15
2022/04/05 12:35:39;;;;;;;1.73;1.63;;;;;;;;;;7364428;19;161896;-16
2022/04/05 12:38:10;;;;;;;3.15;1.60;;;;;;;;;;7363945;19;164083;-15
2022/04/05 12:40:43;;;;;;;1.63;1.50;;;;;;;;;;7364725;19;154101;-12
2022/04/05 12:43:19;;;;;;;2.35;1.60;;;;;;;;;;7364647;19;153647;-15
2022/04/05 12:45:54;;;;;;;1.60;1.50;;;;;;;;;;7364111;19;162167;-14
2022/04/05 12:48:27;;;;;;;2.85;1.50;;;;;;;;;;7364169;19;162345;-13
2022/04/05 12:50:58;;;;;;;3.47;1.70;;;;;;;;;;7364532;19;154011;-14
2022/04/05 12:53:33;;;;;;;4.47;1.58;;;;;;;;;;7364430;19;153710;-12
2022/04/05 12:56:08;;;;;;;1.75;1.35;;;;;;;;;;7363501;19;161853;-12
2022/04/05 12:58:42;;;;;;;2.00;1.10;;;;;;;;;;7363041;19;162310;-14
2022/04/05 13:01:29;;;;;;;2.05;1.83;;;;;;;;;;7364043;19;153917;-14
2022/04/05 13:04:02;;;;;;;1.50;1.20;;;;;;;;;;7363718;19;153621;-13
2022/04/05 13:06:33;;;;;;;;;;;;;;;;;;7363799;19;162060;-15
2022/04/05 13:09:08;;;;;;;4.70;1.50;;;;;;;;;;7363510;19;162781;-12
2022/04/05 13:11:40;;;;;;;1.48;1.25;;;;;;;;;;7363525;19;154038;-15
2022/04/05 13:14:15;;;;;;;2.10;1.27;;;;;;;;;;7363449;19;153621;-14
2022/04/05 13:16:49;;;;;;;1.83;1.15;;;;;;;;;;7362869;19;161892;-14
2022/04/05 13:19:23;;;;;;;1.50;1.23;;;;;;;;;;7361869;19;162520;-15
2022/04/05 13:21:56;;;;;;;2.25;1.20;;;;;;;;;;7363220;19;153926;-13
2022/04/05 13:24:29;;;;;;;;;;;;;;;;;;7363815;19;153520;-14
2022/04/05 13:27:04;;;;;;;5.43;1.40;;;;;;;;;;7363259;19;161940;-13
2022/04/05 13:29:36;;;;;;;2.88;1.75;;;;;;;;;;7355411;19;162406;-13
2022/04/05 13:32:11;;;;;;;6.50;1.90;;;;;;;;;;7334118;19;153916;-14
2022/04/05 13:34:44;;;;;;;29.50;9.80;;;;;;;;;;7334097;19;153486;-14
2022/04/05 13:37:20;;;;;;;189.07;63.47;;;;;;;;;;7333515;19;161843;-13
2022/04/05 13:39:54;;;;;;;267.70;83.05;;;;;;;;;;7331684;19;162429;-13
2022/04/05 13:42:25;;;;;;;176.48;58.92;;;;;;;;;;7333764;19;153907;-15
2022/04/05 13:44:59;;;;;;;193.65;62.00;;;;;;;;;;7333073;19;154137;-13
2022/04/05 13:47:33;;;;;;;289.55;94.35;;;;;;;;;;7333144;19;161778;-13
2022/04/05 13:50:04;;;;;;;261.48;86.10;;;;;;;;;;7333065;19;162407;-14
2022/04/05 13:52:35;;;;;;;183.30;56.45;;;;;;;;;;7333689;19;153922;-14
2022/04/05 13:55:08;;;;;;;190.65;61.47;;;;;;;;;;7333165;19;153841;-13
2022/04/05 13:57:40;;;;;;;176.43;60.67;;;;;;;;;;7332800;19;161818;-14
2022/04/05 14:00:13;;;;;;;152.73;55.50;;;;;;;;;;7331092;19;162410;-15
2022/04/05 14:02:46;;;;;;;137.68;51.92;;;;;;;;;;7333200;19;153983;-13
2022/04/05 14:05:18;;;;;;;137.65;51.83;;;;;;;;;;7333321;19;153606;-15
2022/04/05 14:07:49;;;;;;;147.90;51.55;;;;;;;;;;7332744;19;161702;-16
2022/04/05 14:10:21;;;;;;;135.05;48.33;;;;;;;;;;7332847;19;162339;-15
2022/04/05 14:13:15;;;;;;;127.55;46.22;;;;;;;;;;7332985;19;153946;-15
2022/04/05 14:15:46;;;;;;;118.18;45.22;;;;;;;;;;7332976;19;153617;-14
2022/04/05 14:18:20;;;;;;;133.38;45.30;;;;;;;;;;7332329;19;161949;-15
2022/04/05 14:20:52;;;;;;;106.43;41.13;;;;;;;;;;7330439;19;162743;-14
2022/04/05 14:23:23;;;;;;;117.03;43.45;;;;;;;;;;7332947;19;154042;-15
2022/04/05 14:25:54;;;;;;;108.22;40.67;;;;;;;;;;7331686;19;153653;-13
2022/04/05 14:28:26;;;;;;;113.32;40.35;;;;;;;;;;7331560;19;161790;-15
2022/04/05 14:30:57;;;;;;;99.13;40.38;;;;;;;;;;7332112;19;162621;-16
2022/04/05 14:33:31;;;;;;;104.60;37.80;;;;;;;;;;7332474;19;154160;-15
2022/04/05 14:36:02;;;;;;;96.90;37.17;;;;;;;;;;7332190;19;153625;-14
2022/04/05 14:38:34;;;;;;;100.20;38.42;;;;;;;;;;7332328;19;161858;-14
2022/04/05 14:41:07;;;;;;;87.80;34.58;;;;;;;;;;7328998;19;162886;-15
2022/04/05 14:43:38;;;;;;;98.15;36.75;;;;;;;;;;7330959;19;154008;-12
2022/04/05 14:46:09;;;;;;;94.75;33.90;;;;;;;;;;7332013;19;153846;-13
2022/04/05 14:48:44;;;;;;;88.93;33.88;;;;;;;;;;7331526;19;162200;-13
2022/04/05 14:51:15;;;;;;;79.72;30.80;;;;;;;;;;7331694;19;162366;-12
2022/04/05 14:53:46;;;;;;;76.35;31.95;;;;;;;;;;7332167;19;153877;-13
2022/04/05 14:56:17;;;;;;;77.43;30.27;;;;;;;;;;7331663;19;153338;-15
2022/04/05 14:58:49;;;;;;;78.45;29.23;;;;;;;;;;7331138;19;161939;-14
2022/04/05 15:01:20;;;;;;;84.85;31.55;;;;;;;;;;7328992;19;162385;-13
2022/04/05 15:03:54;;;;;;;71.30;28.63;;;;;;;;;;7331651;19;153998;-13
2022/04/05 15:06:26;;;;;;;80.50;29.63;;;;;;;;;;7331404;19;153645;-14
2022/04/05 15:09:00;;;;;;;66.88;27.80;;;;;;;;;;7331292;19;161924;-15
2022/04/05 15:11:31;;;;;;;71.30;27.70;;;;;;;;;;7330903;19;162447;-15
2022/04/05 15:14:03;;;;;;;59.38;25.83;;;;;;;;;;7331700;19;154200;-15
2022/04/05 15:16:38;;;;;;;64.07;27.08;;;;;;;;;;7331231;19;153580;-15
2022/04/05 15:19:12;;;;;;;66.07;26.20;;;;;;;;;;7330867;19;162049;-15
2022/04/05 15:21:43;;;;;;;62.70;24.30;;;;;;;;;;7328371;19;162477;-14
2022/04/05 15:24:15;;;;;;;57.50;23.33;;;;;;;;;;7331231;19;153967;-15
2022/04/05 15:26:46;;;;;;;59.60;22.65;;;;;;;;;;7331030;19;153646;-16
2022/04/05 15:29:17;;;;;;;51.75;23.52;;;;;;;;;;7327549;19;162405;-14
2022/04/05 15:31:49;;;;;;;60.10;23.45;;;;;;;;;;7330514;19;162718;-14
2022/04/05 15:34:23;;;;;;;53.30;23.17;;;;;;;;;;7330576;19;154151;-16
2022/04/05 15:37:07;;;;;;;52.65;21.73;;;;;;;;;;7329627;19;153354;-13
2022/04/05 15:39:40;;;;;;;61.63;22.92;;;;;;;;;;7330214;19;162002;-16
2022/04/05 15:42:13;;;;;;;55.08;20.10;;;;;;;;;;7327430;19;162721;-14
2022/04/05 15:44:44;;;;;;;46.97;19.67;;;;;;;;;;7330269;19;153931;-16
2022/04/05 15:47:15;;;;;;;48.03;20.17;;;;;;;;;;7330417;19;153582;-14
2022/04/05 15:49:49;;;;;;;46.60;18.73;;;;;;;;;;7329941;19;161871;-15
2022/04/05 15:52:21;;;;;;;50.78;20.45;;;;;;;;;;7329871;19;162282;-15
2022/04/05 15:54:53;;;;;;;45.17;18.33;;;;;;;;;;7329660;19;153966;-14
2022/04/05 15:57:25;;;;;;;54.95;19.95;;;;;;;;;;7330036;19;153553;-15
2022/04/05 15:59:56;;;;;;;35.20;16.92;;;;;;;;;;7329532;19;161764;-16
2022/04/05 16:02:27;;;;;;;38.83;17.75;;;;;;;;;;7325578;19;162365;-13
2022/04/05 16:05:03;;;;;;;40.38;17.80;;;;;;;;;;7329672;19;153927;-14
2022/04/05 16:07:35;;;;;;;40.58;16.35;;;;;;;;;;7328474;19;153693;-14
2022/04/05 16:10:07;;;;;;;37.15;15.27;;;;;;;;;;7329049;19;161995;-15
2022/04/05 16:12:39;;;;;;;42.58;17.50;;;;;;;;;;7329355;19;162426;-15
2022/04/05 16:15:13;;;;;;;34.83;14.40;;;;;;;;;;7329360;19;154164;-15
2022/04/05 16:17:44;;;;;;;38.17;16.50;;;;;;;;;;7329359;19;153627;-17
2022/04/05 16:20:18;;;;;;;39.97;15.88;;;;;;;;;;7328708;19;161962;-14
2022/04/05 16:22:50;;;;;;;31.92;15.10;;;;;;;;;;7325903;19;164319;-13
2022/04/05 16:25:21;;;;;;;34.85;14.73;;;;;;;;;;7328104;19;154005;-15
2022/04/05 16:27:52;;;;;;;33.35;14.77;;;;;;;;;;7329446;19;153599;-16
2022/04/05 16:30:24;;;;;;;32.53;15.27;;;;;;;;;;7325685;19;162085;-14
2022/04/05 16:32:55;;;;;;;30.55;13.65;;;;;;;;;;7328877;19;162351;-15
2022/04/05 16:35:29;;;;;;;31.67;14.20;;;;;;;;;;7329125;19;154128;-15
2022/04/05 16:38:00;;;;;;;33.55;13.95;;;;;;;;;;7328731;19;153732;-14
2022/04/05 16:40:32;;;;;;;30.17;13.02;;;;;;;;;;7328184;19;162218;-15
2022/04/05 16:43:03;;;;;;;29.05;11.95;;;;;;;;;;7325260;19;162540;-14
2022/04/05 16:45:34;;;;;;;30.23;12.55;;;;;;;;;;7328334;19;153924;-16
2022/04/05 16:48:06;;;;;;;25.45;12.65;;;;;;;;;;7328625;19;153717;-15
2022/04/05 16:50:40;;;;;;;27.25;11.68;;;;;;;;;;7328208;19;162052;-14
2022/04/05 16:53:11;;;;;;;24.33;11.23;;;;;;;;;;7327771;19;162580;-15
2022/04/05 16:55:46;;;;;;;26.55;11.85;;;;;;;;;;7328215;19;154140;-15
2022/04/05 16:58:17;;;;;;;27.10;11.93;;;;;;;;;;7328051;19;154558;-14
2022/04/05 17:00:49;;;;;;;25.75;11.73;;;;;;;;;;7327829;19;161764;-15
2022/04/05 17:03:20;;;;;;;26.90;11.73;;;;;;;;;;7327531;19;162490;-14
2022/04/05 17:05:54;;;;;;;24.55;10.38;;;;;;;;;;7331478;19;153779;-13
2022/04/05 17:08:25;;;;;;;26.05;11.35;;;;;;;;;;7334652;19;153552;-14
2022/04/05 17:10:56;;;;;;;25.40;10.45;;;;;;;;;;7334169;19;162054;-16
2022/04/05 17:13:28;;;;;;;26.05;11.02;;;;;;;;;;7334446;19;162231;-15
2022/04/05 17:15:59;;;;;;;21.15;10.30;;;;;;;;;;7334757;19;153895;-13
2022/04/05 17:18:30;;;;;;;18.63;9.35;;;;;;;;;;7334526;19;153718;-15
2022/04/05 17:21:04;;;;;;;22.42;10.10;;;;;;;;;;7334370;19;161904;-16
2022/04/05 17:23:35;;;;;;;19.80;9.75;;;;;;;;;;7334305;19;162552;-15
2022/04/05 17:26:16;;;;;;;20.13;9.48;;;;;;;;;;7334474;19;153927;-15
2022/04/05 17:28:47;;;;;;;22.63;9.75;;;;;;;;;;7333578;19;153544;-15
2022/04/05 17:31:18;;;;;;;21.40;9.60;;;;;;;;;;7334110;19;161838;-14
2022/04/05 17:33:50;;;;;;;20.15;8.85;;;;;;;;;;7333668;19;162588;-14
2022/04/05 17:36:24;;;;;;;17.10;8.88;;;;;;;;;;7334110;19;154015;-15
2022/04/05 17:38:55;;;;;;;19.70;8.68;;;;;;;;;;7334027;19;153567;-14
2022/04/05 17:41:27;;;;;;;20.67;9.07;;;;;;;;;;7333179;19;161798;-15
2022/04/05 17:43:58;;;;;;;15.65;8.30;;;;;;;;;;7333509;19;162535;-16
2022/04/05 17:46:30;;;;;;;16.45;8.65;;;;;;;;;;7333750;19;154064;-15
2022/04/05 17:49:01;;;;;;;16.90;7.68;;;;;;;;;;7333851;19;153638;-15
2022/04/05 17:51:35;;;;;;;18.58;8.52;;;;;;;;;;7333041;19;161836;-15
2022/04/05 17:54:06;;;;;;;13.70;7.50;;;;;;;;;;7333118;19;162335;-15
2022/04/05 17:56:37;;;;;;;19.23;8.57;;;;;;;;;;7333587;19;153852;-15
2022/04/05 17:59:08;;;;;;;21.65;8.73;;;;;;;;;;7333542;19;153795;-14
2022/04/05 18:01:41;;;;;;;16.17;8.00;;;;;;;;;;7332723;19;161768;-16
2022/04/05 18:04:14;;;;;;;16.53;7.63;;;;;;;;;;7331907;19;162411;-16
2022/04/05 18:06:47;;;;;;;19.08;8.68;;;;;;;;;;7332247;19;154036;-15
2022/04/05 18:09:19;;;;;;;16.98;7.88;;;;;;;;;;7333273;19;153431;-15
2022/04/05 18:11:51;;;;;;;13.75;7.70;;;;;;;;;;7332750;19;161965;-15
2022/04/05 18:14:23;;;;;;;18.00;7.55;;;;;;;;;;7332657;19;162449;-16
2022/04/05 18:16:54;;;;;;;12.55;6.03;;;;;;;;;;7332962;19;154164;-16
2022/04/05 18:19:26;;;;;;;13.98;7.28;;;;;;;;;;7332786;19;153736;-14
2022/04/05 18:22:00;;;;;;;13.75;7.15;;;;;;;;;;7332121;19;161787;-16
2022/04/05 18:24:32;;;;;;;14.43;7.00;;;;;;;;;;7332469;19;162525;-17
2022/04/05 18:27:05;;;;;;;14.43;6.68;;;;;;;;;;7332831;19;154038;-16
2022/04/05 18:29:36;;;;;;;;;;;;;;;;;;7330293;19;153518;-14
2022/04/05 18:32:09;;;;;;;14.18;6.22;;;;;;;;;;7332420;19;162070;-14
2022/04/05 18:34:40;;;;;;;14.35;6.55;;;;;;;;;;7332317;19;162425;-15
2022/04/05 18:37:15;;;;;;;13.60;6.50;;;;;;;;;;7331182;19;153844;-15
2022/04/05 18:39:49;;;;;;;12.40;5.55;;;;;;;;;;7330944;19;153639;-16
2022/04/05 18:42:20;;;;;;;11.65;6.07;;;;;;;;;;7331189;19;162346;-16
2022/04/05 18:44:52;;;;;;;10.73;5.85;;;;;;;;;;7331416;19;162378;-16
2022/04/05 18:47:24;;;;;;;11.43;5.82;;;;;;;;;;7331848;19;154416;-16
2022/04/05 18:49:56;;;;;;;11.32;5.40;;;;;;;;;;7332007;19;153499;-15
2022/04/05 18:52:29;;;;;;;14.90;5.90;;;;;;;;;;7332862;19;162253;-16
2022/04/05 18:55:01;;;;;;;11.75;5.18;;;;;;;;;;7331073;19;162478;-14
2022/04/05 18:57:48;;;;;;;10.55;5.50;;;;;;;;;;7331800;19;154088;-16
2022/04/05 19:00:21;;;;;;;7.90;4.60;;;;;;;;;;7329085;19;153823;-15
2022/04/05 19:02:52;;;;;;;8.00;4.60;;;;;;;;;;7329027;19;161884;-13
2022/04/05 19:05:23;;;;;;;9.23;4.88;;;;;;;;;;7329888;19;162390;-16
2022/04/05 19:07:58;;;;;;;8.80;5.07;;;;;;;;;;7330730;19;154162;-14
2022/04/05 19:10:30;;;;;;;8.27;4.18;;;;;;;;;;7329927;19;153757;-16
2022/04/05 19:13:02;;;;;;;8.00;5.25;;;;;;;;;;7331067;19;161860;-14
2022/04/05 19:15:35;;;;;;;6.57;4.10;;;;;;;;;;7330919;19;162533;-15
2022/04/05 19:18:06;;;;;;;7.70;4.18;;;;;;;;;;7331337;19;154170;-15
2022/04/05 19:20:38;;;;;;;9.07;4.55;;;;;;;;;;7330872;19;153697;-17
2022/04/05 19:23:12;;;;;;;5.00;4.00;;;;;;;;;;7329732;19;161835;-14
2022/04/05 19:25:43;;;;;;;7.60;4.50;;;;;;;;;;7330261;19;162620;-12
2022/04/05 19:28:14;;;;;;;7.38;3.90;;;;;;;;;;7328341;19;154189;-15
2022/04/05 19:30:46;;;;;;;6.80;4.18;;;;;;;;;;7330379;19;153573;-15
2022/04/05 19:33:17;;;;;;;4.93;4.13;;;;;;;;;;7330068;19;162435;-15
2022/04/05 19:35:48;;;;;;;6.13;4.80;;;;;;;;;;7330075;19;162384;-14
2022/04/05 19:38:22;;;;;;;7.50;4.75;;;;;;;;;;7330137;19;153969;-13
2022/04/05 19:40:54;;;;;;;6.82;4.82;;;;;;;;;;7330180;19;153544;-13
2022/04/05 19:43:25;;;;;;;7.20;4.57;;;;;;;;;;7329326;19;161915;-16
2022/04/05 19:45:59;;;;;;;7.22;4.22;;;;;;;;;;7329700;19;162195;-15
2022/04/05 19:48:34;;;;;;;6.82;4.20;;;;;;;;;;7328849;19;154039;-15
2022/04/05 19:51:06;;;;;;;8.45;4.82;;;;;;;;;;7328710;19;153719;-14
2022/04/05 19:53:41;;;;;;;5.82;4.85;;;;;;;;;;7328666;19;161901;-15
2022/04/05 19:56:13;;;;;;;5.75;4.03;;;;;;;;;;7329356;19;162298;-15
2022/04/05 19:58:44;;;;;;;5.63;4.30;;;;;;;;;;7329488;19;153979;-15
2022/04/05 20:01:15;;;;;;;6.25;4.43;;;;;;;;;;7329456;19;153531;-13
2022/04/05 20:03:47;;;;;;;6.18;4.18;;;;;;;;;;7328313;19;161765;-14
2022/04/05 20:06:18;;;;;;;6.45;3.92;;;;;;;;;;7328957;19;162367;-15
2022/04/05 20:08:52;;;;;;;6.63;4.10;;;;;;;;;;7329253;19;154224;-15
2022/04/05 20:11:24;;;;;;;6.60;4.45;;;;;;;;;;7329210;19;153618;-13
2022/04/05 20:13:56;;;;;;;5.53;4.40;;;;;;;;;;7327677;19;161874;-15
2022/04/05 20:19:12;;;;;;;10.18;4.65;;;;;;;;;;7329207;19;154342;-13
2022/04/05 20:21:43;;;;;;;8.20;4.88;;;;;;;;;;7330545;19;153791;-13
2022/04/05 20:24:17;;;;;;;6.75;4.57;;;;;;;;;;7327102;19;161886;-14
2022/04/05 20:26:48;;;;;;;7.13;4.18;;;;;;;;;;7331515;19;162318;-13
2022/04/05 20:29:20;;;;;;;6.82;4.50;;;;;;;;;;7328238;19;153964;-16
2022/04/05 20:31:52;;;;;;;11.80;4.43;;;;;;;;;;7329552;19;153659;-16
2022/04/05 20:34:24;;;;;;;6.72;4.25;;;;;;;;;;7331491;19;162504;-15
2022/04/05 20:36:55;;;;;;;7.45;4.63;;;;;;;;;;7330130;19;162487;-13
2022/04/05 20:39:29;;;;;;;6.88;4.57;;;;;;;;;;7331050;19;153947;-14
2022/04/05 20:42:01;;;;;;;7.00;3.78;;;;;;;;;;7337253;19;153596;-13
2022/04/05 20:44:32;;;;;;;6.82;4.10;;;;;;;;;;7336684;19;161872;-15
2022/04/05 20:47:03;;;;;;;7.38;4.35;;;;;;;;;;7337859;19;162596;-13
2022/04/05 20:49:35;;;;;;;5.55;3.85;;;;;;;;;;7337140;19;154090;-13
2022/04/05 20:52:06;;;;;;;8.15;3.60;;;;;;;;;;7337865;19;153697;-14
2022/04/05 20:54:41;;;;;;;6.82;4.40;;;;;;;;;;7337633;19;161761;-14
2022/04/05 20:57:12;;;;;;;5.05;3.42;;;;;;;;;;7337703;19;162401;-15
2022/04/05 20:59:45;;;;;;;5.80;4.00;;;;;;;;;;7337790;19;154156;-14
2022/04/05 21:02:16;;;;;;;7.80;3.70;;;;;;;;;;7336549;19;153630;-13
2022/04/05 21:04:48;;;;;;;5.43;3.75;;;;;;;;;;7336923;19;161793;-14
2022/04/05 21:07:20;;;;;;;5.68;3.78;;;;;;;;;;7337697;19;162519;-14
2022/04/05 21:10:00;;;;;;;6.50;4.07;;;;;;;;;;7338229;19;154121;-15
2022/04/05 21:12:31;;;;;;;5.97;4.13;;;;;;;;;;7337705;19;153678;-15
2022/04/05 21:15:03;;;;;;;5.22;3.88;;;;;;;;;;7338382;19;163797;-15
2022/04/05 21:17:34;;;;;;;5.88;3.58;;;;;;;;;;7332838;19;162661;-15
2022/04/05 21:20:07;;;;;;;5.63;3.40;;;;;;;;;;7334480;19;154035;-14
2022/04/05 21:22:38;;;;;;;6.53;3.97;;;;;;;;;;7334199;19;153552;-14
2022/04/05 21:25:14;;;;;;;;;;;;;;;;;;7333079;19;161919;-14
2022/04/05 21:27:45;;;;;;;7.45;3.70;;;;;;;;;;7335537;19;162584;-14
2022/04/05 21:30:17;;;;;;;6.72;2.97;;;;;;;;;;7332126;19;154089;-16
2022/04/05 21:32:49;;;;;;;4.57;3.70;;;;;;;;;;7334566;19;153722;-13
2022/04/05 21:35:20;;;;;;;5.40;3.83;;;;;;;;;;7336490;19;161799;-14
2022/04/05 21:37:53;;;;;;;6.43;3.15;;;;;;;;;;7336393;19;162376;-14
2022/04/05 21:40:27;;;;;;;6.00;3.43;;;;;;;;;;7336946;19;153969;-14
2022/04/05 21:42:58;;;;;;;5.13;3.72;;;;;;;;;;7333809;19;153540;-16
2022/04/05 21:45:29;;;;;;;5.40;3.45;;;;;;;;;;7335306;19;161906;-18
2022/04/05 21:48:00;;;;;;;5.15;3.30;;;;;;;;;;7336778;19;162366;-12
2022/04/05 21:50:32;;;;;;;8.93;3.40;;;;;;;;;;7332961;19;154105;-14
2022/04/05 21:53:03;;;;;;;5.53;3.47;;;;;;;;;;7332406;19;153560;-13
2022/04/05 21:55:37;;;;;;;5.72;3.13;;;;;;;;;;7331937;19;162033;-14
2022/04/05 21:58:09;;;;;;;4.57;3.47;;;;;;;;;;7333046;19;162351;-16
2022/04/05 22:00:49;;;;;;;5.77;3.13;;;;;;;;;;7333469;19;154015;-15
2022/04/05 22:03:22;;;;;;;4.85;3.17;;;;;;;;;;7332800;19;153542;-14
2022/04/05 22:05:54;;;;;;;6.25;3.58;;;;;;;;;;7333388;19;161616;-15
2022/04/05 22:08:25;;;;;;;6.05;3.13;;;;;;;;;;7335934;19;162577;-15
2022/04/05 22:11:01;;;;;;;4.90;2.85;;;;;;;;;;7336263;19;154233;-14
2022/04/05 22:13:32;;;;;;;4.70;2.97;;;;;;;;;;7335678;19;153859;-14
2022/04/05 22:16:04;;;;;;;3.50;2.85;;;;;;;;;;7334830;19;161852;-15
2022/04/05 22:18:36;;;;;;;3.45;2.80;;;;;;;;;;7335438;19;162419;-15
2022/04/05 22:21:09;;;;;;;5.40;3.15;;;;;;;;;;7335516;19;154121;-14
2022/04/05 22:23:41;;;;;;;5.93;3.42;;;;;;;;;;7335665;19;153542;-14
2022/04/05 22:26:15;;;;;;;6.28;2.97;;;;;;;;;;7332974;19;162063;-14
2022/04/05 22:28:47;;;;;;;7.75;4.35;;;;;;;;;;7334038;19;163160;-14
2022/04/05 22:31:18;;;;;;;6.55;4.03;;;;;;;;;;7332271;19;154022;-15
2022/04/05 22:33:49;;;;;;;13.55;4.85;;;;;;;;;;7330867;19;153574;-16
2022/04/05 22:36:20;;;;;;;9.95;3.75;;;;;;;;;;7332346;19;161681;-13
2022/04/05 22:38:52;;;;;;;6.05;3.75;;;;;;;;;;7331644;19;162713;-15
2022/04/05 22:41:26;;;;;;;8.18;4.47;;;;;;;;;;7332160;19;154370;-16
2022/04/05 22:43:57;;;;;;;7.38;3.88;;;;;;;;;;7332281;19;153512;-15
